createdAt,value
2019-01-08T06:43:42.876Z,3
2019-01-08T06:53:43.459Z,7
2019-01-08T06:55:43.594Z,10
2019-01-08T06:57:43.760Z,13
2019-01-08T06:58:13.727Z,17
2019-01-08T06:59:13.819Z,13
2019-01-08T07:01:13.904Z,17
2019-01-08T07:01:43.931Z,20
2019-01-08T07:02:13.972Z,23
2019-01-08T07:03:14.030Z,30
2019-01-08T07:03:44.051Z,33
2019-01-08T07:04:44.103Z,37
2019-01-08T07:05:14.198Z,43
2019-01-08T07:05:44.170Z,53
2019-01-08T07:06:14.239Z,60
2019-01-08T07:06:44.232Z,63
2019-01-08T07:07:14.301Z,70
2019-01-08T07:07:44.288Z,77
2019-01-08T07:08:14.365Z,87
2019-01-08T07:08:44.401Z,100
2019-01-08T07:09:14.416Z,110
2019-01-08T07:10:14.487Z,117
2019-01-08T07:10:44.506Z,127
2019-01-08T07:11:14.542Z,120
2019-01-08T07:11:44.577Z,117
2019-01-08T07:12:14.597Z,133
2019-01-08T07:12:44.684Z,143
2019-01-08T07:13:14.674Z,133
2019-01-08T07:13:44.689Z,127
2019-01-08T07:14:14.765Z,137
2019-01-08T07:14:44.752Z,143
2019-01-08T07:15:44.875Z,150
2019-01-08T07:16:14.826Z,170
2019-01-08T07:16:44.863Z,207
2019-01-08T07:17:15.014Z,203
2019-01-08T07:17:44.991Z,183
2019-01-08T07:18:15.020Z,187
2019-01-08T07:18:45.023Z,190
2019-01-08T07:19:15.105Z,173
2019-01-08T07:19:45.064Z,180
2019-01-08T07:20:15.069Z,173
2019-01-08T07:21:15.202Z,170
2019-01-08T07:21:45.211Z,177
2019-01-08T07:22:15.262Z,193
2019-01-08T07:22:45.289Z,187
2019-01-08T07:23:15.300Z,233
2019-01-08T07:23:45.306Z,253
2019-01-08T07:24:15.340Z,250
2019-01-08T07:24:45.368Z,247
2019-01-08T07:25:15.444Z,263
2019-01-08T07:25:45.425Z,243
2019-01-08T07:26:15.506Z,253
2019-01-08T07:26:45.486Z,277
2019-01-08T07:27:16.472Z,300
2019-01-08T07:27:45.545Z,293
2019-01-08T07:28:15.630Z,267
2019-01-08T07:28:45.610Z,270
2019-01-08T07:29:15.695Z,293
2019-01-08T07:29:45.677Z,310
2019-01-08T07:30:15.685Z,313
2019-01-08T07:30:45.751Z,320
2019-01-08T07:31:15.803Z,347
2019-01-08T07:31:45.812Z,440
2019-01-08T07:32:15.857Z,483
2019-01-08T07:32:45.868Z,553
2019-01-08T07:33:15.919Z,590
2019-01-08T07:33:45.885Z,640
2019-01-08T07:34:15.964Z,707
2019-01-08T07:34:46.044Z,680
2019-01-08T07:35:15.993Z,673
2019-01-08T07:35:46.042Z,683
2019-01-08T07:36:46.126Z,700
2019-01-08T07:37:16.217Z,743
2019-01-08T07:37:46.172Z,767
2019-01-08T07:38:16.203Z,780
2019-01-08T07:38:46.214Z,803
2019-01-08T07:39:16.347Z,857
2019-01-08T07:39:46.281Z,917
2019-01-08T07:40:16.571Z,957
2019-01-08T07:40:46.343Z,1003
2019-01-08T07:41:46.422Z,1047
2019-01-08T07:42:16.461Z,1080
2019-01-08T07:42:46.469Z,1067
2019-01-08T07:43:16.493Z,1127
2019-01-08T07:43:46.524Z,1233
2019-01-08T07:44:16.596Z,1360
2019-01-08T07:44:46.629Z,1427
2019-01-08T07:45:16.629Z,1453
2019-01-08T07:45:47.287Z,1540
2019-01-08T07:46:16.692Z,1600
2019-01-08T07:46:46.758Z,1643
2019-01-08T07:47:16.910Z,1597
2019-01-08T07:47:46.786Z,1527
2019-01-08T07:48:16.896Z,1573
2019-01-08T07:48:46.808Z,1620
2019-01-08T07:49:16.863Z,1553
2019-01-08T07:49:46.891Z,1550
2019-01-08T07:50:16.925Z,1503
2019-01-08T07:50:46.936Z,1377
2019-01-08T07:51:16.988Z,1493
2019-01-08T07:51:47.012Z,1683
2019-01-08T07:52:17.053Z,1560
2019-01-08T07:52:47.058Z,1373
2019-01-08T07:53:17.164Z,1173
2019-01-08T07:53:47.129Z,1070
2019-01-08T07:54:17.195Z,933
2019-01-08T07:54:47.188Z,913
2019-01-08T07:55:17.260Z,897
2019-01-08T07:55:47.300Z,807
2019-01-08T07:56:17.340Z,737
2019-01-08T07:56:47.351Z,707
2019-01-08T07:57:17.380Z,787
2019-01-08T07:57:47.467Z,953
2019-01-08T07:58:17.457Z,943
2019-01-08T07:58:47.523Z,910
2019-01-08T07:59:17.534Z,913
2019-01-08T07:59:47.517Z,1027
2019-01-08T08:00:17.632Z,1080
2019-01-08T08:00:50.020Z,1010
2019-01-08T08:01:17.608Z,1227
2019-01-08T08:01:47.734Z,1583
2019-01-08T08:02:17.691Z,1657
2019-01-08T08:02:47.873Z,1673
2019-01-08T08:03:17.756Z,1740
2019-01-08T08:03:47.817Z,1980
2019-01-08T08:04:17.834Z,1960
2019-01-08T08:04:48.132Z,1613
2019-01-08T08:05:17.917Z,1700
2019-01-08T08:05:47.917Z,1763
2019-01-08T08:06:17.977Z,1827
2019-01-08T08:06:48.036Z,1883
2019-01-08T08:07:18.063Z,1953
2019-01-08T08:07:48.035Z,1980
2019-01-08T08:08:18.094Z,1840
2019-01-08T08:08:48.093Z,1813
2019-01-08T08:09:18.166Z,2030
2019-01-08T08:09:48.155Z,2077
2019-01-08T08:10:18.224Z,2050
2019-01-08T08:10:48.249Z,2147
2019-01-08T08:11:18.235Z,2103
2019-01-08T08:11:48.298Z,2077
2019-01-08T08:12:18.316Z,1813
2019-01-08T08:12:48.312Z,1743
2019-01-08T08:13:18.359Z,1950
2019-01-08T08:13:48.391Z,2057
2019-01-08T08:14:18.406Z,2290
2019-01-08T08:14:48.450Z,2067
2019-01-08T08:15:18.477Z,2183
2019-01-08T08:15:48.642Z,2463
2019-01-08T08:16:18.545Z,2773
2019-01-08T08:16:48.597Z,2567
2019-01-08T08:17:18.606Z,2330
2019-01-08T08:17:48.659Z,2360
2019-01-08T08:18:18.686Z,2417
2019-01-08T08:18:48.717Z,2160
2019-01-08T08:19:18.789Z,2147
2019-01-08T08:19:48.774Z,2313
2019-01-08T08:20:18.854Z,2560
2019-01-08T08:20:48.806Z,2367
2019-01-08T08:21:18.908Z,2700
2019-01-08T08:21:48.898Z,3210
2019-01-08T08:22:18.922Z,3500
2019-01-08T08:22:48.927Z,3840
2019-01-08T08:23:19.003Z,3077
2019-01-08T08:23:48.966Z,2847
2019-01-08T08:24:19.004Z,2753
2019-01-08T08:24:49.062Z,2860
2019-01-08T08:25:19.150Z,3530
2019-01-08T08:25:49.303Z,3610
2019-01-08T08:26:19.211Z,3463
2019-01-08T08:26:49.262Z,3450
2019-01-08T08:27:19.263Z,2937
2019-01-08T08:27:49.293Z,2377
2019-01-08T08:28:19.301Z,2347
2019-01-08T08:28:49.327Z,2063
2019-01-08T08:29:19.341Z,1653
2019-01-08T08:29:49.407Z,1380
2019-01-08T08:30:19.473Z,1410
2019-01-08T08:30:49.452Z,1460
2019-01-08T08:31:19.478Z,1420
2019-01-08T08:31:49.495Z,1397
2019-01-08T08:32:19.546Z,1340
2019-01-08T08:32:49.524Z,1510
2019-01-08T08:33:19.625Z,1667
2019-01-08T08:33:49.592Z,1887
2019-01-08T08:34:19.627Z,2017
2019-01-08T08:34:49.650Z,2420
2019-01-08T08:35:19.698Z,2897
2019-01-08T08:35:49.699Z,2770
2019-01-08T08:36:19.763Z,2653
2019-01-08T08:36:49.827Z,2927
2019-01-08T08:37:19.813Z,3507
2019-01-08T08:37:49.833Z,4207
2019-01-08T08:38:19.875Z,4247
2019-01-08T08:38:49.882Z,4993
2019-01-08T08:39:19.965Z,6110
2019-01-08T08:39:49.948Z,5953
2019-01-08T08:40:20.005Z,4397
2019-01-08T08:40:50.036Z,3310
2019-01-08T08:41:20.074Z,2783
2019-01-08T08:42:20.151Z,3670
2019-01-08T08:42:50.163Z,4687
2019-01-08T08:43:20.179Z,4557
2019-01-08T08:43:50.203Z,3787
2019-01-08T08:44:20.351Z,2857
2019-01-08T08:44:50.294Z,2453
2019-01-08T08:45:20.311Z,1887
2019-01-08T08:45:50.379Z,1533
2019-01-08T08:46:20.372Z,1580
2019-01-08T08:46:50.492Z,1543
2019-01-08T08:47:20.453Z,1430
2019-01-08T08:47:50.471Z,1760
2019-01-08T08:48:20.484Z,2517
2019-01-08T08:48:50.530Z,2930
2019-01-08T08:49:20.634Z,3493
2019-01-08T08:49:50.613Z,3483
2019-01-08T08:50:20.671Z,3107
2019-01-08T08:50:50.657Z,3090
2019-01-08T08:51:20.749Z,3037
2019-01-08T08:51:50.749Z,3257
2019-01-08T08:52:20.777Z,4250
2019-01-08T08:52:50.770Z,5103
2019-01-08T08:53:20.798Z,5493
2019-01-08T08:53:52.500Z,5600
2019-01-08T08:54:20.874Z,5853
2019-01-08T08:54:50.904Z,5107
2019-01-08T08:55:20.944Z,4657
2019-01-08T08:55:51.015Z,4410
2019-01-08T08:56:21.046Z,4060
2019-01-08T08:56:51.077Z,3527
2019-01-08T08:57:21.108Z,3130
2019-01-08T08:57:51.104Z,3020
2019-01-08T08:58:21.131Z,3083
2019-01-08T08:58:51.199Z,3067
2019-01-08T08:59:21.171Z,3313
2019-01-08T08:59:51.241Z,3283
2019-01-08T09:00:21.229Z,3273
2019-01-08T09:00:51.248Z,3333
2019-01-08T09:01:21.322Z,3253
2019-01-08T09:01:51.348Z,3173
2019-01-08T09:02:21.424Z,3207
2019-01-08T09:02:51.396Z,3233
2019-01-08T09:03:21.437Z,3237
2019-01-08T09:03:51.450Z,3603
2019-01-08T09:04:21.507Z,4393
2019-01-08T09:04:51.546Z,5030
2019-01-08T09:05:21.554Z,5453
2019-01-08T09:05:51.633Z,5840
2019-01-08T09:06:21.740Z,6907
2019-01-08T09:06:51.642Z,8377
2019-01-08T09:07:21.739Z,9367
2019-01-08T09:07:51.699Z,10420
2019-01-08T09:08:21.738Z,11013
2019-01-08T09:08:51.786Z,13043
2019-01-08T09:09:21.801Z,12417
2019-01-08T09:09:51.888Z,11130
2019-01-08T09:10:21.872Z,10680
2019-01-08T09:10:51.942Z,9140
2019-01-08T09:11:21.934Z,9253
2019-01-08T09:11:51.958Z,7697
2019-01-08T09:12:22.006Z,7253
2019-01-08T09:12:52.057Z,6750
2019-01-08T09:13:22.073Z,5693
2019-01-08T09:13:52.119Z,4903
2019-01-08T09:14:22.082Z,4420
2019-01-08T09:14:52.155Z,3930
2019-01-08T09:15:22.156Z,3390
2019-01-08T09:15:52.198Z,2970
2019-01-08T09:16:22.215Z,2560
2019-01-08T09:16:52.274Z,2203
2019-01-08T09:17:22.366Z,2267
2019-01-08T09:17:52.315Z,2070
2019-01-08T09:18:22.373Z,1863
2019-01-08T09:18:52.381Z,1560
2019-01-08T09:19:22.439Z,1280
2019-01-08T09:19:52.412Z,1177
2019-01-08T09:20:22.518Z,1217
2019-01-08T09:20:52.476Z,1180
2019-01-08T09:21:22.567Z,1157
2019-01-08T09:21:52.591Z,1193
2019-01-08T09:22:22.671Z,1230
2019-01-08T09:22:52.625Z,1300
2019-01-08T09:23:22.652Z,1213
2019-01-08T09:23:52.659Z,1280
2019-01-08T09:24:22.701Z,1223
2019-01-08T09:24:52.711Z,1150
2019-01-08T09:25:22.761Z,1063
2019-01-08T09:25:52.783Z,900
2019-01-08T09:26:22.847Z,780
2019-01-08T09:26:52.855Z,723
2019-01-08T09:27:22.976Z,757
2019-01-08T09:27:52.897Z,913
2019-01-08T09:28:22.987Z,1000
2019-01-08T09:28:52.955Z,1077
2019-01-08T09:29:23.033Z,1137
2019-01-08T09:29:53.056Z,1213
2019-01-08T09:30:23.145Z,1227
2019-01-08T09:30:53.081Z,1187
2019-01-08T09:31:23.179Z,1230
2019-01-08T09:31:53.245Z,1417
2019-01-08T09:32:23.271Z,1547
2019-01-08T09:32:53.253Z,1567
2019-01-08T09:33:23.303Z,1673
2019-01-08T09:33:53.350Z,1893
2019-01-08T09:34:23.322Z,2147
2019-01-08T09:34:53.370Z,2470
2019-01-08T09:35:23.421Z,2617
2019-01-08T09:35:53.397Z,2550
2019-01-08T09:36:23.486Z,2903
2019-01-08T09:36:53.507Z,3013
2019-01-08T09:37:23.605Z,2947
2019-01-08T09:37:53.552Z,3157
2019-01-08T09:38:23.624Z,2757
2019-01-08T09:38:53.609Z,2560
2019-01-08T09:39:23.675Z,2797
2019-01-08T09:39:53.635Z,2800
2019-01-08T09:40:23.752Z,2617
2019-01-08T09:40:53.820Z,2723
2019-01-08T09:41:23.764Z,2910
2019-01-08T09:41:53.814Z,3013
2019-01-08T09:42:23.831Z,3373
2019-01-08T09:42:53.866Z,3960
2019-01-08T09:43:23.932Z,3957
2019-01-08T09:43:54.043Z,4263
2019-01-08T09:44:23.961Z,4153
2019-01-08T09:44:53.991Z,4500
2019-01-08T09:45:24.063Z,4567
2019-01-08T09:45:54.096Z,4290
2019-01-08T09:46:24.071Z,4270
2019-01-08T09:46:54.219Z,4053
2019-01-08T09:47:24.203Z,3837
2019-01-08T09:47:54.187Z,3833
2019-01-08T09:48:24.218Z,3747
2019-01-08T09:48:54.226Z,3717
2019-01-08T09:49:25.985Z,3883
2019-01-08T09:49:54.301Z,4153
2019-01-08T09:50:24.301Z,4507
2019-01-08T09:50:54.319Z,4800
2019-01-08T09:51:24.403Z,4643
2019-01-08T09:51:54.407Z,4540
2019-01-08T09:52:24.737Z,4760
2019-01-08T09:52:54.463Z,5453
2019-01-08T09:53:24.533Z,5310
2019-01-08T09:53:54.540Z,4943
2019-01-08T09:54:24.601Z,4673
2019-01-08T09:54:54.620Z,4410
2019-01-08T09:55:24.653Z,3597
2019-01-08T09:55:54.648Z,2810
2019-01-08T09:56:24.719Z,2737
2019-01-08T09:56:54.731Z,2883
2019-01-08T09:57:24.827Z,2790
2019-01-08T09:57:54.773Z,2953
2019-01-08T09:58:24.824Z,3040
2019-01-08T09:58:54.809Z,3590
2019-01-08T09:59:24.944Z,4323
2019-01-08T09:59:54.899Z,4997
2019-01-08T10:00:24.921Z,5113
2019-01-08T10:00:54.991Z,6130
2019-01-08T10:01:25.034Z,7700
2019-01-08T10:01:55.010Z,7477
2019-01-08T10:02:25.163Z,6980
2019-01-08T10:02:55.075Z,7493
2019-01-08T10:03:25.148Z,7637
2019-01-08T10:03:55.157Z,7700
2019-01-08T10:04:25.191Z,7657
2019-01-08T10:04:55.211Z,6390
2019-01-08T10:05:25.272Z,5810
2019-01-08T10:05:56.499Z,5320
2019-01-08T10:06:25.341Z,5277
2019-01-08T10:06:55.342Z,5257
2019-01-08T10:07:25.641Z,5493
2019-01-08T10:07:55.372Z,5973
2019-01-08T10:08:25.455Z,5933
2019-01-08T10:08:55.427Z,5027
2019-01-08T10:09:25.487Z,4560
2019-01-08T10:09:55.790Z,4870
2019-01-08T10:10:25.547Z,4447
2019-01-08T10:10:55.578Z,3483
2019-01-08T10:11:25.645Z,3180
2019-01-08T10:11:55.604Z,3297
2019-01-08T10:12:25.749Z,3490
2019-01-08T10:12:55.664Z,3587
2019-01-08T10:13:25.723Z,4313
2019-01-08T10:13:55.769Z,4450
2019-01-08T10:14:25.782Z,5503
2019-01-08T10:14:55.785Z,6603
2019-01-08T10:15:25.876Z,7973
2019-01-08T10:15:55.853Z,7790
2019-01-08T10:16:25.933Z,8737
2019-01-08T10:16:55.961Z,10940
2019-01-08T10:17:26.005Z,11150
2019-01-08T10:17:55.971Z,11023
2019-01-08T10:18:26.026Z,9877
2019-01-08T10:18:56.037Z,8473
2019-01-08T10:19:26.124Z,7787
2019-01-08T10:19:56.144Z,7567
2019-01-08T10:20:26.160Z,6283
2019-01-08T10:20:56.161Z,5550
2019-01-08T10:21:26.226Z,5327
2019-01-08T10:21:56.283Z,4227
2019-01-08T10:22:26.343Z,3943
2019-01-08T10:22:56.307Z,3457
2019-01-08T10:23:26.405Z,3303
2019-01-08T10:23:56.402Z,3233
2019-01-08T10:24:26.430Z,3300
2019-01-08T10:24:56.451Z,3417
2019-01-08T10:25:26.490Z,3443
2019-01-08T10:25:56.539Z,3300
2019-01-08T10:26:26.555Z,2690
2019-01-08T10:26:56.574Z,3180
2019-01-08T10:27:26.622Z,3600
2019-01-08T10:27:56.618Z,3173
2019-01-08T10:28:26.699Z,3470
2019-01-08T10:28:56.707Z,3540
2019-01-08T10:29:26.759Z,3503
2019-01-08T10:29:57.032Z,4317
2019-01-08T10:30:26.822Z,5233
2019-01-08T10:30:56.822Z,5030
2019-01-08T10:31:32.258Z,5423
2019-01-08T10:31:56.939Z,5330
2019-01-08T10:32:26.951Z,3647
2019-01-08T10:32:56.928Z,3907
2019-01-08T10:33:26.968Z,5480
2019-01-08T10:33:56.985Z,5587
2019-01-08T10:34:27.091Z,6070
2019-01-08T10:34:57.064Z,5980
2019-01-08T10:35:27.250Z,7703
2019-01-08T10:35:57.135Z,6640
2019-01-08T10:36:27.175Z,6200
2019-01-08T10:36:57.172Z,5630
2019-01-08T10:37:27.292Z,8127
2019-01-08T10:37:57.199Z,8533
2019-01-08T10:38:27.312Z,9017
2019-01-08T10:38:57.302Z,8023
2019-01-08T10:39:27.313Z,6783
2019-01-08T10:39:57.361Z,5377
2019-01-08T10:40:27.372Z,4640
2019-01-08T10:40:57.381Z,4810
2019-01-08T10:41:27.518Z,5233
2019-01-08T10:41:57.481Z,4357
2019-01-08T10:42:27.606Z,3690
2019-01-08T10:42:57.559Z,5497
2019-01-08T10:43:27.614Z,4643
2019-01-08T10:43:57.592Z,5010
2019-01-08T10:44:27.678Z,6623
2019-01-08T10:44:57.669Z,4863
2019-01-08T10:45:27.760Z,3300
2019-01-08T10:45:57.776Z,3160
2019-01-08T10:46:27.910Z,3253
2019-01-08T10:46:57.794Z,3507
2019-01-08T10:47:27.953Z,2890
2019-01-08T10:47:57.867Z,3177
2019-01-08T10:48:27.956Z,3600
2019-01-08T10:48:57.921Z,4100
2019-01-08T10:49:27.965Z,4297
2019-01-08T10:49:58.021Z,4713
2019-01-08T10:50:28.072Z,5243
2019-01-08T10:50:58.022Z,5317
2019-01-08T10:51:28.072Z,4950
2019-01-08T10:51:58.100Z,4557
2019-01-08T10:52:28.217Z,4033
2019-01-08T10:52:58.189Z,3693
2019-01-08T10:53:28.236Z,4187
2019-01-08T10:53:58.185Z,4427
2019-01-08T10:54:28.469Z,5540
2019-01-08T10:54:58.318Z,8617
2019-01-08T10:55:28.370Z,10090
2019-01-08T10:55:58.344Z,10613
2019-01-08T10:56:28.410Z,11010
2019-01-08T10:56:58.400Z,10593
2019-01-08T10:57:28.495Z,8500
2019-01-08T10:57:58.449Z,8690
2019-01-08T10:58:28.515Z,7280
2019-01-08T10:58:58.533Z,6770
2019-01-08T10:59:28.571Z,7680
2019-01-08T10:59:58.584Z,8220
2019-01-08T11:00:28.618Z,10017
2019-01-08T11:00:58.624Z,11910
2019-01-08T11:01:28.692Z,13317
2019-01-08T11:01:58.711Z,15440
2019-01-08T11:02:28.793Z,17557
2019-01-08T11:02:58.758Z,15713
2019-01-08T11:03:28.933Z,13873
2019-01-08T11:03:58.814Z,13257
2019-01-08T11:04:28.907Z,14280
2019-01-08T11:04:58.860Z,18207
2019-01-08T11:05:28.946Z,19087
2019-01-08T11:05:58.938Z,22703
2019-01-08T11:06:28.979Z,24103
2019-01-08T11:06:59.001Z,21813
2019-01-08T11:07:29.118Z,16013
2019-01-08T11:07:59.039Z,14987
2019-01-08T11:08:29.095Z,13270
2019-01-08T11:08:59.136Z,7707
2019-01-08T11:09:29.262Z,8513
2019-01-08T11:09:59.213Z,8060
2019-01-08T11:10:29.319Z,8073
2019-01-08T11:10:59.273Z,8070
2019-01-08T11:11:29.329Z,7250
2019-01-08T11:11:59.340Z,8183
2019-01-08T11:12:29.398Z,8930
2019-01-08T11:12:59.436Z,7947
2019-01-08T11:13:29.445Z,8533
2019-01-08T11:13:59.442Z,8600
2019-01-08T11:14:29.501Z,7940
2019-01-08T11:14:59.495Z,7587
2019-01-08T11:15:29.604Z,6697
2019-01-08T11:15:59.579Z,6457
2019-01-08T11:16:29.633Z,7047
2019-01-08T11:16:59.655Z,7230
2019-01-08T11:17:29.750Z,6830
2019-01-08T11:17:59.713Z,6450
2019-01-08T11:18:29.785Z,6377
2019-01-08T11:18:59.802Z,6310
2019-01-08T11:19:29.769Z,6303
2019-01-08T11:19:59.841Z,6433
2019-01-08T11:20:29.878Z,6640
2019-01-08T11:20:59.889Z,7107
2019-01-08T11:21:29.983Z,7980
2019-01-08T11:21:59.942Z,9307
2019-01-08T11:22:30.076Z,10867
2019-01-08T11:23:00.045Z,11977
2019-01-08T11:23:30.024Z,13027
2019-01-08T11:24:00.031Z,13333
2019-01-08T11:24:30.082Z,14100
2019-01-08T11:25:00.290Z,14640
2019-01-08T11:25:30.239Z,14067
2019-01-08T11:26:00.219Z,13037
2019-01-08T11:26:30.263Z,11507
2019-01-08T11:27:00.695Z,10403
2019-01-08T11:27:30.351Z,10070
2019-01-08T11:28:01.304Z,10447
2019-01-08T11:28:30.357Z,11063
2019-01-08T11:29:00.729Z,11623
2019-01-08T11:29:30.435Z,11910
2019-01-08T11:30:01.285Z,11457
2019-01-08T11:30:30.492Z,10657
2019-01-08T11:31:00.578Z,10260
2019-01-08T11:31:30.525Z,10220
2019-01-08T11:32:00.718Z,9900
2019-01-08T11:32:30.634Z,9223
2019-01-08T11:33:01.012Z,8597
2019-01-08T11:33:30.625Z,8213
2019-01-08T11:34:00.691Z,7893
2019-01-08T11:34:30.798Z,7687
2019-01-08T11:35:00.969Z,8110
2019-01-08T11:35:30.815Z,9047
2019-01-08T11:36:00.764Z,9953
2019-01-08T11:36:30.839Z,10350
2019-01-08T11:37:00.845Z,11093
2019-01-08T11:37:30.960Z,12973
2019-01-08T11:38:00.974Z,15873
2019-01-08T11:38:31.002Z,17823
2019-01-08T11:39:01.023Z,16980
2019-01-08T11:39:31.067Z,14557
2019-01-08T11:40:01.092Z,13867
2019-01-08T11:40:31.084Z,14507
2019-01-08T11:41:01.082Z,15453
2019-01-08T11:41:31.216Z,14467
2019-01-08T11:42:01.141Z,10793
2019-01-08T11:42:31.317Z,10090
2019-01-08T11:43:01.525Z,10800
2019-01-08T11:43:31.335Z,9830
2019-01-08T11:44:01.897Z,8480
2019-01-08T11:44:31.340Z,8067
2019-01-08T11:45:01.326Z,8220
2019-01-08T11:45:31.388Z,8767
2019-01-08T11:46:01.391Z,10030
2019-01-08T11:46:31.489Z,11610
2019-01-08T11:47:01.503Z,12293
2019-01-08T11:47:31.547Z,12820
2019-01-08T11:48:04.010Z,13843
2019-01-08T11:48:31.566Z,15230
2019-01-08T11:49:01.599Z,16170
2019-01-08T11:49:31.628Z,16687
2019-01-08T11:50:01.627Z,16397
2019-01-08T11:50:31.732Z,16290
2019-01-08T11:51:01.710Z,16323
2019-01-08T11:51:31.808Z,16593
2019-01-08T11:52:01.787Z,16730
2019-01-08T11:52:31.856Z,16363
2019-01-08T11:53:01.871Z,15407
2019-01-08T11:53:31.854Z,14083
2019-01-08T11:54:01.868Z,13150
2019-01-08T11:54:31.926Z,12917
2019-01-08T11:55:01.966Z,12313
2019-01-08T11:55:31.983Z,10833
2019-01-08T11:56:02.025Z,9090
2019-01-08T11:56:32.056Z,7520
2019-01-08T11:57:02.065Z,6063
2019-01-08T11:57:32.132Z,4670
2019-01-08T11:58:02.161Z,3890
2019-01-08T11:58:32.207Z,3830
2019-01-08T11:59:02.257Z,3923
2019-01-08T11:59:32.254Z,3897
2019-01-08T12:00:02.242Z,3940
2019-01-08T12:00:32.328Z,3920
2019-01-08T12:01:02.306Z,3983
2019-01-08T12:01:32.395Z,4087
2019-01-08T12:02:02.441Z,4793
2019-01-08T12:02:32.484Z,5157
2019-01-08T12:03:02.472Z,4840
2019-01-08T12:03:32.510Z,4520
2019-01-08T12:04:02.549Z,5087
2019-01-08T12:04:32.573Z,5060
2019-01-08T12:05:02.582Z,5163
2019-01-08T12:05:32.598Z,5623
2019-01-08T12:06:02.651Z,5370
2019-01-08T12:06:32.700Z,4933
2019-01-08T12:07:02.712Z,5087
2019-01-08T12:07:32.810Z,5837
2019-01-08T12:08:02.762Z,5143
2019-01-08T12:08:32.803Z,4403
2019-01-08T12:09:02.820Z,4117
2019-01-08T12:09:32.870Z,4613
2019-01-08T12:10:02.962Z,4623
2019-01-08T12:10:32.937Z,4777
2019-01-08T12:11:02.947Z,4190
2019-01-08T12:11:32.998Z,4997
2019-01-08T12:12:03.010Z,5980
2019-01-08T12:12:33.076Z,7070
2019-01-08T12:13:03.078Z,5940
2019-01-08T12:13:33.133Z,5533
2019-01-08T12:14:03.211Z,6483
2019-01-08T12:14:33.196Z,6353
2019-01-08T12:15:03.250Z,5530
2019-01-08T12:15:33.230Z,5560
2019-01-08T12:16:03.317Z,4590
2019-01-08T12:16:33.318Z,4307
2019-01-08T12:17:03.342Z,3737
2019-01-08T12:17:33.395Z,3767
2019-01-08T12:18:03.354Z,3280
2019-01-08T12:18:33.427Z,4533
2019-01-08T12:19:03.433Z,4237
2019-01-08T12:19:33.477Z,5060
2019-01-08T12:20:03.498Z,5050
2019-01-08T12:20:33.555Z,4910
2019-01-08T12:21:03.560Z,6493
2019-01-08T12:21:33.615Z,5657
2019-01-08T12:22:03.614Z,5357
2019-01-08T12:22:40.737Z,4713
2019-01-08T12:23:03.728Z,4313
2019-01-08T12:23:33.709Z,4227
2019-01-08T12:24:03.780Z,5240
2019-01-08T12:24:33.796Z,6177
2019-01-08T12:25:03.795Z,4283
2019-01-08T12:25:33.911Z,5347
2019-01-08T12:26:03.882Z,5853
2019-01-08T12:26:33.979Z,6130
2019-01-08T12:27:03.992Z,5917
2019-01-08T12:27:34.068Z,6577
2019-01-08T12:28:04.005Z,7000
2019-01-08T12:28:34.050Z,8130
2019-01-08T12:29:04.065Z,9273
2019-01-08T12:29:34.096Z,9827
2019-01-08T12:30:04.125Z,9670
2019-01-08T12:30:34.179Z,9173
2019-01-08T12:31:04.174Z,8143
2019-01-08T12:31:34.224Z,7263
2019-01-08T12:32:06.095Z,6970
2019-01-08T12:32:34.348Z,7087
2019-01-08T12:33:04.346Z,7007
2019-01-08T12:33:34.375Z,7823
2019-01-08T12:34:04.407Z,7350
2019-01-08T12:34:34.453Z,7553
2019-01-08T12:35:04.423Z,7737
2019-01-08T12:35:34.467Z,8547
2019-01-08T12:36:04.475Z,8480
2019-01-08T12:36:34.568Z,8407
2019-01-08T12:37:04.582Z,8310
2019-01-08T12:37:34.664Z,9983
2019-01-08T12:38:04.620Z,10200
2019-01-08T12:38:34.635Z,8527
2019-01-08T12:39:04.644Z,8433
2019-01-08T12:39:34.701Z,10000
2019-01-08T12:40:04.753Z,10500
2019-01-08T12:40:34.797Z,10447
2019-01-08T12:41:04.810Z,9080
2019-01-08T12:41:34.857Z,8277
2019-01-08T12:42:04.831Z,8980
2019-01-08T12:42:34.911Z,8533
2019-01-08T12:43:05.173Z,6613
2019-01-08T12:43:34.950Z,5043
2019-01-08T12:44:04.949Z,4097
2019-01-08T12:44:34.995Z,3807
2019-01-08T12:45:05.049Z,3333
2019-01-08T12:45:35.071Z,3413
2019-01-08T12:46:05.163Z,5303
2019-01-08T12:46:35.186Z,7680
2019-01-08T12:47:05.160Z,7693
2019-01-08T12:47:35.254Z,6647
2019-01-08T12:48:05.237Z,4960
2019-01-08T12:48:35.286Z,5287
2019-01-08T12:49:05.278Z,7013
2019-01-08T12:49:35.381Z,7003
2019-01-08T12:50:05.315Z,7840
2019-01-08T12:50:35.450Z,9807
2019-01-08T12:51:05.430Z,9797
2019-01-08T12:51:35.473Z,9620
2019-01-08T12:52:05.463Z,9350
2019-01-08T12:52:35.595Z,10120
2019-01-08T12:53:05.593Z,9370
2019-01-08T12:53:36.130Z,7677
2019-01-08T12:54:05.590Z,7443
2019-01-08T12:54:35.645Z,6313
2019-01-08T12:55:05.710Z,5807
2019-01-08T12:55:35.855Z,5943
2019-01-08T12:56:05.726Z,7303
2019-01-08T12:56:35.754Z,8840
2019-01-08T12:57:05.821Z,6887
2019-01-08T12:57:35.898Z,5367
2019-01-08T12:58:05.865Z,4667
2019-01-08T12:58:35.910Z,5000
2019-01-08T12:59:05.932Z,5250
2019-01-08T12:59:35.954Z,5917
2019-01-08T13:00:05.967Z,8210
2019-01-08T13:00:36.014Z,7000
2019-01-08T13:01:06.073Z,7373
2019-01-08T13:01:36.126Z,7670
2019-01-08T13:02:14.250Z,8933
2019-01-08T13:02:36.154Z,9310
2019-01-08T13:03:06.163Z,8960
2019-01-08T13:03:36.206Z,8347
2019-01-08T13:04:06.230Z,8543
2019-01-08T13:04:36.227Z,8450
2019-01-08T13:05:06.322Z,7557
2019-01-08T13:05:36.322Z,7913
2019-01-08T13:06:06.341Z,8043
2019-01-08T13:06:36.423Z,7383
2019-01-08T13:07:06.393Z,7253
2019-01-08T13:07:36.525Z,7150
2019-01-08T13:08:06.453Z,6733
2019-01-08T13:08:36.538Z,5913
2019-01-08T13:09:06.519Z,6087
2019-01-08T13:09:36.569Z,6227
2019-01-08T13:10:06.585Z,6353
2019-01-08T13:10:36.629Z,6437
2019-01-08T13:11:06.847Z,6360
2019-01-08T13:11:36.661Z,6073
2019-01-08T13:12:06.719Z,6020
2019-01-08T13:12:36.796Z,5943
2019-01-08T13:13:06.798Z,5797
2019-01-08T13:13:36.824Z,5740
2019-01-08T13:14:06.831Z,5363
2019-01-08T13:14:36.890Z,4767
2019-01-08T13:15:06.877Z,4643
2019-01-08T13:15:36.944Z,4810
2019-01-08T13:16:06.943Z,4847
2019-01-08T13:16:36.991Z,4570
2019-01-08T13:17:11.491Z,3813
2019-01-08T13:17:37.087Z,3550
2019-01-08T13:18:07.069Z,3330
2019-01-08T13:18:37.118Z,3463
2019-01-08T13:19:07.131Z,3703
2019-01-08T13:19:37.182Z,3977
2019-01-08T13:20:07.189Z,4800
2019-01-08T13:20:37.251Z,4950
2019-01-08T13:21:07.254Z,4393
2019-01-08T13:21:37.311Z,3570
2019-01-08T13:22:07.291Z,4107
2019-01-08T13:22:37.462Z,4907
2019-01-08T13:23:07.345Z,5373
2019-01-08T13:23:37.478Z,5093
2019-01-08T13:24:07.522Z,4853
2019-01-08T13:24:37.488Z,4160
2019-01-08T13:25:07.524Z,3483
2019-01-08T13:25:37.584Z,3580
2019-01-08T13:26:07.534Z,3903
2019-01-08T13:26:37.607Z,3283
2019-01-08T13:27:07.628Z,3193
2019-01-08T13:27:37.678Z,3580
2019-01-08T13:28:07.688Z,3443
2019-01-08T13:28:37.715Z,3313
2019-01-08T13:29:07.796Z,3690
2019-01-08T13:29:37.756Z,4817
2019-01-08T13:30:07.805Z,5127
2019-01-08T13:30:37.830Z,4510
2019-01-08T13:31:07.879Z,3873
2019-01-08T13:31:37.883Z,4070
2019-01-08T13:32:07.930Z,4380
2019-01-08T13:32:38.006Z,4057
2019-01-08T13:33:07.985Z,3167
2019-01-08T13:33:38.035Z,2690
2019-01-08T13:34:08.043Z,2253
2019-01-08T13:34:38.114Z,2640
2019-01-08T13:35:08.155Z,3213
2019-01-08T13:35:38.182Z,3523
2019-01-08T13:36:08.167Z,3727
2019-01-08T13:36:38.201Z,3173
2019-01-08T13:37:08.235Z,3203
2019-01-08T13:37:38.350Z,3423
2019-01-08T13:38:08.295Z,3563
2019-01-08T13:38:38.367Z,4360
2019-01-08T13:39:08.352Z,5283
2019-01-08T13:39:38.436Z,5317
2019-01-08T13:40:08.441Z,5250
2019-01-08T13:40:38.479Z,4903
2019-01-08T13:41:08.506Z,4493
2019-01-08T13:41:38.538Z,4310
2019-01-08T13:42:08.560Z,4060